Time;durP1;ratioP1;P1;durP2;ratioP2;P2;SDS_P1;SDS_P2;PMS_P1;PMS_P2;Temp;Humidity;BMP_temperature;BMP_pressure;BME280_temperature;BME280_humidity;BME280_pressure;Samples;Min_cycle;Max_cycle;Signal;HPM_P1;HPM_P2
2022/11/29 00:00:48;;;;;;;;;;;11.00;99.90;;;;;;4969470;28;20319;-73
2022/11/29 00:03:13;;;;;;;;;;;11.00;99.90;;;;;;4985056;28;19910;-73
2022/11/29 00:05:39;;;;;;;;;;;11.10;99.90;;;;;;4981918;28;19920;-73
2022/11/29 00:08:04;;;;;;;;;;;11.10;99.90;;;;;;4975607;28;20415;-73
2022/11/29 00:10:30;;;;;;;;;;;11.00;99.90;;;;;;4985158;28;20304;-74
2022/11/29 00:12:55;;;;;;;;;;;11.00;99.90;;;;;;4993391;28;19954;-74
2022/11/29 00:15:21;;;;;;;;;;;11.00;99.90;;;;;;4970753;28;19916;-73
2022/11/29 00:17:46;;;;;;;;;;;10.90;99.90;;;;;;4970646;28;19910;-74
2022/11/29 00:20:12;;;;;;;;;;;11.00;99.90;;;;;;4975831;28;19969;-73
2022/11/29 00:22:38;;;;;;;;;;;11.10;99.90;;;;;;4981753;28;19964;-75
2022/11/29 00:25:04;;;;;;;;;;;11.10;99.90;;;;;;4985046;28;20356;-73
2022/11/29 00:27:29;;;;;;;;;;;11.10;99.90;;;;;;4970412;28;19941;-73
2022/11/29 00:29:55;;;;;;;;;;;11.30;99.90;;;;;;4975165;28;19938;-73
2022/11/29 00:32:20;;;;;;;;;;;11.30;99.90;;;;;;4985149;28;19910;-75
2022/11/29 00:34:46;;;;;;;;;;;11.20;99.90;;;;;;4981522;28;20442;-73
2022/11/29 00:37:11;;;;;;;;;;;11.10;99.90;;;;;;4989656;28;19910;-74
2022/11/29 00:39:37;;;;;;;;;;;11.20;99.90;;;;;;4980628;28;20303;-73
2022/11/29 00:42:02;;;;;;;;;;;11.00;99.90;;;;;;4983640;28;20059;-73
2022/11/29 00:44:28;;;;;;;;;;;11.30;99.90;;;;;;4986142;28;19940;-74
2022/11/29 00:46:53;;;;;;;;;;;11.20;99.90;;;;;;4978760;28;19910;-74
2022/11/29 00:49:19;;;;;;;;;;;11.00;99.90;;;;;;4969713;28;20377;-74
2022/11/29 00:51:45;;;;;;;;;;;10.80;99.90;;;;;;4971763;28;19916;-72
2022/11/29 00:54:10;;;;;;;;;;;10.80;99.90;;;;;;4976147;28;20540;-73
2022/11/29 00:56:36;;;;;;;;;;;10.80;99.90;;;;;;4975492;28;19914;-75
2022/11/29 00:59:01;;;;;;;;;;;10.80;99.90;;;;;;4968571;28;19980;-75
2022/11/29 01:01:27;;;;;;;;;;;10.80;99.90;;;;;;4968304;28;19952;-75
2022/11/29 01:03:52;;;;;;;;;;;10.80;99.90;;;;;;4970082;28;20043;-75
2022/11/29 01:06:18;;;;;;;;;;;10.90;99.90;;;;;;4966029;28;19950;-76
2022/11/29 01:08:48;;;;;;;;;;;10.80;99.90;;;;;;4967812;28;19910;-75
2022/11/29 01:11:15;;;;;;;;;;;10.80;99.90;;;;;;4968838;28;19934;-75
2022/11/29 01:13:41;;;;;;;;;;;10.70;99.90;;;;;;4967713;28;19921;-76
2022/11/29 01:16:07;;;;;;;;;;;10.90;99.90;;;;;;4966032;28;20098;-75
2022/11/29 01:18:32;;;;;;;;;;;11.00;99.90;;;;;;4964962;28;19998;-75
2022/11/29 01:20:59;;;;;;;;;;;10.90;99.90;;;;;;4966572;28;19921;-75
2022/11/29 01:23:25;;;;;;;;;;;11.00;99.90;;;;;;4966880;28;19910;-75
2022/11/29 01:26:20;;;;;;;;;;;11.20;99.90;;;;;;4971717;28;19949;-75
2022/11/29 01:28:46;;;;;;;;;;;11.20;99.90;;;;;;4962720;28;19960;-75
2022/11/29 01:31:13;;;;;;;;;;;11.10;99.90;;;;;;4969394;28;19910;-75
2022/11/29 01:33:39;;;;;;;;;;;11.00;99.90;;;;;;4973993;28;20370;-74
2022/11/29 01:36:06;;;;;;;;;;;11.00;99.90;;;;;;4973776;28;19910;-75
2022/11/29 01:38:31;;;;;;;;;;;10.80;99.90;;;;;;4962314;28;19914;-76
2022/11/29 01:41:06;;;;;;;;;;;10.80;99.90;;;;;;4967463;28;19990;-74
2022/11/29 01:43:32;;;;;;;;;;;10.70;99.90;;;;;;4967776;28;20356;-75
2022/11/29 01:45:58;;;;;;;;;;;10.60;99.90;;;;;;4971199;28;20009;-75
2022/11/29 01:48:28;;;;;;;;;;;10.90;99.90;;;;;;4967326;28;20009;-75
2022/11/29 01:50:56;;;;;;;;;;;10.80;99.90;;;;;;4980750;28;20394;-75
2022/11/29 01:53:22;;;;;;;;;;;10.80;99.90;;;;;;4976640;28;19910;-75
2022/11/29 01:55:51;;;;;;;;;;;10.90;99.90;;;;;;4976185;28;19917;-75
2022/11/29 01:58:16;;;;;;;;;;;10.80;99.90;;;;;;4968433;28;20360;-75
2022/11/29 02:00:42;;;;;;;;;;;10.90;99.90;;;;;;4973575;28;19918;-73
2022/11/29 02:03:11;;;;;;;;;;;11.00;99.90;;;;;;4970224;28;19926;-75
2022/11/29 02:05:41;;;;;;;;;;;11.10;99.90;;;;;;4988115;28;20002;-74
2022/11/29 02:08:08;;;;;;;;;;;11.20;99.90;;;;;;4986950;28;19898;-75
2022/11/29 02:10:39;;;;;;;;;;;11.10;99.90;;;;;;4972371;28;20075;-75
2022/11/29 02:13:11;;;;;;;;;;;11.20;99.90;;;;;;4970190;28;19914;-75
2022/11/29 02:16:06;;;;;;;;;;;11.30;99.90;;;;;;4962589;28;20188;-75
2022/11/29 02:18:50;;;;;;;;;;;11.30;99.90;;;;;;4964895;28;19910;-74
2022/11/29 02:21:29;;;;;;;;;;;11.00;99.90;;;;;;4965870;28;20136;-74
2022/11/29 02:24:06;;;;;;;;;;;11.10;99.90;;;;;;4979082;28;20052;-74
2022/11/29 02:26:32;;;;;;;;;;;10.90;99.90;;;;;;4988553;28;19942;-75
2022/11/29 02:29:16;;;;;;;;;;;10.80;99.90;;;;;;4984550;28;19921;-74
2022/11/29 02:31:52;;;;;;;;;;;11.00;99.90;;;;;;4975816;28;19920;-75
2022/11/29 02:34:33;;;;;;;;;;;11.10;99.90;;;;;;4977264;28;19917;-75
2022/11/29 02:37:18;;;;;;;;;;;11.00;99.90;;;;;;4966593;28;19910;-75
2022/11/29 02:39:49;;;;;;;;;;;11.00;99.90;;;;;;4965088;28;19910;-74
2022/11/29 02:42:26;;;;;;;;;;;11.10;99.90;;;;;;4968884;28;19910;-75
2022/11/29 02:45:10;;;;;;;;;;;11.20;99.90;;;;;;4963387;28;19926;-75
2022/11/29 02:47:51;;;;;;;;;;;11.00;99.90;;;;;;4970274;28;19910;-75
2022/11/29 02:50:35;;;;;;;;;;;10.90;99.90;;;;;;4969227;28;19976;-75
2022/11/29 02:53:01;;;;;;;;;;;11.10;99.90;;;;;;4967426;28;20245;-75
2022/11/29 02:55:32;;;;;;;;;;;10.80;99.90;;;;;;4990042;28;19917;-74
2022/11/29 02:57:57;;;;;;;;;;;10.80;99.90;;;;;;5011949;28;19914;-74
2022/11/29 03:00:23;;;;;;;;;;;10.90;99.90;;;;;;4997977;28;19918;-75
2022/11/29 03:03:07;;;;;;;;;;;10.90;99.90;;;;;;4977453;28;20371;-75
2022/11/29 03:05:35;;;;;;;;;;;10.70;99.90;;;;;;4970894;28;19914;-75
2022/11/29 03:08:13;;;;;;;;;;;10.40;99.90;;;;;;4968000;28;19916;-75
2022/11/29 03:10:59;;;;;;;;;;;10.40;99.90;;;;;;4971849;28;19909;-75
2022/11/29 03:13:36;;;;;;;;;;;10.20;99.90;;;;;;4955695;28;19914;-75
2022/11/29 03:16:08;;;;;;;;;;;10.40;99.90;;;;;;4967291;28;20209;-75
2022/11/29 03:18:42;;;;;;;;;;;10.60;99.90;;;;;;4966016;28;19914;-75
2022/11/29 03:21:37;;;;;;;;;;;10.60;99.90;;;;;;4977056;28;19917;-75
2022/11/29 03:24:14;;;;;;;;;;;10.60;99.90;;;;;;4970773;28;19914;-75
2022/11/29 03:26:42;;;;;;;;;;;10.70;99.90;;;;;;4966421;28;20219;-76
2022/11/29 03:29:20;;;;;;;;;;;10.50;99.90;;;;;;4974978;28;19920;-75
2022/11/29 03:31:45;;;;;;;;;;;10.30;99.90;;;;;;4968499;28;19961;-75
2022/11/29 03:34:20;;;;;;;;;;;10.40;99.90;;;;;;4971410;28;19910;-76
2022/11/29 03:36:46;;;;;;;;;;;10.70;99.90;;;;;;4976982;28;19910;-74
2022/11/29 03:39:17;;;;;;;;;;;10.60;99.90;;;;;;4963513;28;20290;-74
2022/11/29 03:41:48;;;;;;;;;;;10.60;99.90;;;;;;4964097;28;19965;-75
2022/11/29 03:44:18;;;;;;;;;;;10.70;99.90;;;;;;4994233;28;20055;-76
2022/11/29 03:46:55;;;;;;;;;;;10.50;99.90;;;;;;4965707;28;19910;-75
2022/11/29 03:49:39;;;;;;;;;;;10.70;99.90;;;;;;4967294;28;19910;-74
2022/11/29 03:52:11;;;;;;;;;;;10.70;99.90;;;;;;4972131;28;19910;-76
2022/11/29 03:54:45;;;;;;;;;;;10.90;99.90;;;;;;4971264;28;20593;-75
2022/11/29 03:57:12;;;;;;;;;;;11.00;99.90;;;;;;4980469;28;19960;-74
2022/11/29 03:59:41;;;;;;;;;;;10.90;99.90;;;;;;4971715;28;19964;-75
2022/11/29 04:02:18;;;;;;;;;;;10.90;99.90;;;;;;4972608;28;19910;-75
2022/11/29 04:04:46;;;;;;;;;;;10.90;99.90;;;;;;4966193;28;20438;-75
2022/11/29 04:07:19;;;;;;;;;;;11.00;99.90;;;;;;4968860;28;20391;-76
2022/11/29 04:10:03;;;;;;;;;;;11.00;99.90;;;;;;4968386;28;19966;-76
2022/11/29 04:12:50;;;;;;;;;;;11.00;99.90;;;;;;4988481;28;19910;-75
2022/11/29 04:15:34;;;;;;;;;;;11.00;99.90;;;;;;4970359;28;20506;-76
2022/11/29 04:18:19;;;;;;;;;;;11.40;99.90;;;;;;4962470;28;19925;-75
2022/11/29 04:20:47;;;;;;;;;;;11.40;99.90;;;;;;5003515;28;19972;-75
2022/11/29 04:23:16;;;;;;;;;;;11.70;99.90;;;;;;4985804;28;20143;-75
2022/11/29 04:25:59;;;;;;;;;;;11.60;99.90;;;;;;4968844;28;20263;-77
2022/11/29 04:28:49;;;;;;;;;;;11.50;99.90;;;;;;4970076;28;19996;-76
2022/11/29 04:31:29;;;;;;;;;;;11.50;99.90;;;;;;4963226;28;19917;-75
2022/11/29 04:33:57;;;;;;;;;;;11.50;99.90;;;;;;4962723;28;19916;-74
2022/11/29 04:36:35;;;;;;;;;;;11.50;99.90;;;;;;4964836;28;20376;-75
2022/11/29 04:39:06;;;;;;;;;;;11.10;99.90;;;;;;4998784;28;20295;-76
2022/11/29 04:41:38;;;;;;;;;;;11.30;99.90;;;;;;4966534;28;19984;-76
2022/11/29 04:44:06;;;;;;;;;;;11.20;99.90;;;;;;4961665;28;20203;-75
2022/11/29 04:46:50;;;;;;;;;;;11.50;99.90;;;;;;4970347;28;20006;-75
2022/11/29 04:49:21;;;;;;;;;;;11.30;99.90;;;;;;4961878;28;19910;-75
2022/11/29 04:51:47;;;;;;;;;;;11.40;99.90;;;;;;4966853;28;19910;-75
2022/11/29 04:54:18;;;;;;;;;;;11.50;99.90;;;;;;4973460;28;20324;-75
2022/11/29 04:56:44;;;;;;;;;;;11.30;99.90;;;;;;4959291;28;20359;-75
2022/11/29 04:59:12;;;;;;;;;;;11.30;99.90;;;;;;4981168;28;19910;-76
2022/11/29 05:01:47;;;;;;;;;;;11.60;99.90;;;;;;4961933;28;19977;-78
2022/11/29 05:04:16;;;;;;;;;;;11.40;99.90;;;;;;4974218;28;19918;-74
2022/11/29 05:07:00;;;;;;;;;;;11.20;99.90;;;;;;4963180;28;19974;-75
2022/11/29 05:09:29;;;;;;;;;;;11.30;99.90;;;;;;4973294;28;19954;-75
2022/11/29 05:12:09;;;;;;;;;;;11.30;99.90;;;;;;4972533;28;20458;-75
2022/11/29 05:14:53;;;;;;;;;;;11.40;99.90;;;;;;4970214;28;20009;-75
2022/11/29 05:17:37;;;;;;;;;;;11.30;99.90;;;;;;4982013;28;19910;-75
2022/11/29 05:20:18;;;;;;;;;;;11.00;99.90;;;;;;4961437;28;20399;-75
2022/11/29 05:22:47;;;;;;;;;;;10.90;99.90;;;;;;4980580;28;19918;-75
2022/11/29 05:25:13;;;;;;;;;;;10.70;99.90;;;;;;4971282;28;19925;-75
2022/11/29 05:27:41;;;;;;;;;;;10.90;99.90;;;;;;4974798;28;19914;-75
2022/11/29 05:30:20;;;;;;;;;;;11.00;99.90;;;;;;4979841;28;19997;-75
2022/11/29 05:32:56;;;;;;;;;;;11.20;99.90;;;;;;4984177;28;19937;-75
2022/11/29 05:35:40;;;;;;;;;;;11.30;99.90;;;;;;4978238;28;19922;-75
2022/11/29 05:38:24;;;;;;;;;;;11.50;99.90;;;;;;4976470;28;20326;-75
2022/11/29 05:40:56;;;;;;;;;;;11.40;99.90;;;;;;4982978;28;20387;-75
2022/11/29 05:43:40;;;;;;;;;;;11.70;99.90;;;;;;4974064;28;19910;-75
2022/11/29 05:46:12;;;;;;;;;;;11.90;99.90;;;;;;4966130;28;19926;-75
2022/11/29 05:48:52;;;;;;;;;;;11.70;99.90;;;;;;4968810;28;19965;-76
2022/11/29 05:51:21;;;;;;;;;;;11.60;99.90;;;;;;4970129;28;19965;-75
2022/11/29 05:53:46;;;;;;;;;;;11.80;99.90;;;;;;4969725;28;20292;-75
2022/11/29 05:56:17;;;;;;;;;;;11.80;99.90;;;;;;4965262;28;19910;-76
2022/11/29 05:58:47;;;;;;;;;;;11.70;99.90;;;;;;4966462;28;20026;-76
2022/11/29 06:01:20;;;;;;;;;;;12.10;99.90;;;;;;4967547;28;20309;-75
2022/11/29 06:04:03;;;;;;;;;;;12.10;99.90;;;;;;4966781;28;20304;-74
2022/11/29 06:06:31;;;;;;;;;;;12.20;99.90;;;;;;4966814;28;19938;-75
2022/11/29 06:09:03;;;;;;;;;;;12.30;99.90;;;;;;4998040;28;20120;-75
2022/11/29 06:11:36;;;;;;;;;;;12.50;99.90;;;;;;4984433;28;19971;-75
2022/11/29 06:14:07;;;;;;;;;;;12.50;99.90;;;;;;4965392;28;19910;-75
2022/11/29 06:16:39;;;;;;;;;;;12.30;99.90;;;;;;4964989;28;19926;-75
2022/11/29 06:19:29;;;;;;;;;;;12.20;99.90;;;;;;4990822;28;19905;-73
2022/11/29 06:21:58;;;;;;;;;;;12.40;99.90;;;;;;4984020;28;19938;-75
2022/11/29 06:24:50;;;;;;;;;;;12.60;99.90;;;;;;4965767;28;20167;-76
2022/11/29 06:27:25;;;;;;;;;;;12.60;99.90;;;;;;4955951;28;19910;-74
2022/11/29 06:29:55;;;;;;;;;;;12.50;99.90;;;;;;4974085;28;19913;-74
2022/11/29 06:32:30;;;;;;;;;;;12.70;99.90;;;;;;4971637;28;19910;-75
2022/11/29 06:34:59;;;;;;;;;;;12.80;99.90;;;;;;4965902;28;19920;-73
2022/11/29 06:37:24;;;;;;;;;;;12.90;99.90;;;;;;4969938;28;19914;-75
2022/11/29 06:39:50;;;;;;;;;;;12.70;99.90;;;;;;4966093;28;20001;-74
2022/11/29 06:42:15;;;;;;;;;;;12.70;99.90;;;;;;4968818;28;20002;-75
2022/11/29 06:44:41;;;;;;;;;;;12.70;99.90;;;;;;4968813;28;20498;-75
2022/11/29 06:47:09;;;;;;;;;;;12.80;99.90;;;;;;4967648;28;20721;-74
2022/11/29 06:49:45;;;;;;;;;;;12.70;99.90;;;;;;4967395;28;20356;-73
2022/11/29 06:52:22;;;;;;;;;;;12.80;99.90;;;;;;4978849;28;20029;-73
2022/11/29 06:55:00;;;;;;;;;;;12.80;99.90;;;;;;4967292;28;19928;-74
2022/11/29 06:57:44;;;;;;;;;;;12.80;99.90;;;;;;4977063;28;19915;-74
2022/11/29 07:00:20;;;;;;;;;;;12.90;99.90;;;;;;4967184;28;20387;-75
2022/11/29 07:02:53;;;;;;;;;;;12.80;99.90;;;;;;4969584;28;19961;-75
2022/11/29 07:05:18;;;;;;;;;;;12.90;99.90;;;;;;4965904;28;20504;-75
2022/11/29 07:07:45;;;;;;;;;;;12.70;99.90;;;;;;4974319;28;19918;-75
2022/11/29 07:10:18;;;;;;;;;;;12.60;99.90;;;;;;4966806;28;19914;-75
2022/11/29 07:12:45;;;;;;;;;;;12.80;99.90;;;;;;4971724;28;19970;-75
2022/11/29 07:15:14;;;;;;;;;;;12.70;99.90;;;;;;4965763;28;19910;-74
2022/11/29 07:17:42;;;;;;;;;;;12.70;99.90;;;;;;4964101;28;19921;-75
2022/11/29 07:20:19;;;;;;;;;;;12.50;99.90;;;;;;4977278;28;19914;-76
2022/11/29 07:22:45;;;;;;;;;;;12.50;99.90;;;;;;4968236;28;19910;-75
2022/11/29 07:25:19;;;;;;;;;;;12.50;99.90;;;;;;4973938;28;20030;-75
2022/11/29 07:27:52;;;;;;;;;;;12.70;99.90;;;;;;4968261;28;20647;-75
2022/11/29 07:30:19;;;;;;;;;;;12.80;99.90;;;;;;4972778;28;19969;-75
2022/11/29 07:32:48;;;;;;;;;;;12.90;99.90;;;;;;4973016;28;20363;-75
2022/11/29 07:35:16;;;;;;;;;;;13.10;99.90;;;;;;4968879;28;19921;-74
2022/11/29 07:37:59;;;;;;;;;;;13.30;99.90;;;;;;4969025;28;19914;-75
2022/11/29 07:40:28;;;;;;;;;;;13.10;99.90;;;;;;4999833;28;19914;-74
2022/11/29 07:43:12;;;;;;;;;;;13.20;99.90;;;;;;4966029;28;20446;-74
2022/11/29 07:45:38;;;;;;;;;;;13.10;99.90;;;;;;4976384;28;19946;-74
2022/11/29 07:48:03;;;;;;;;;;;13.20;99.90;;;;;;4961375;28;19914;-74
2022/11/29 07:50:29;;;;;;;;;;;13.10;99.90;;;;;;4964772;28;20355;-74
2022/11/29 07:52:56;;;;;;;;;;;13.10;99.90;;;;;;4974301;28;19957;-73
2022/11/29 07:55:23;;;;;;;;;;;13.10;99.90;;;;;;4974096;28;19914;-74
2022/11/29 07:57:49;;;;;;;;;;;13.10;99.90;;;;;;4974009;28;19965;-74
2022/11/29 08:00:15;;;;;;;;;;;12.90;99.90;;;;;;4977393;28;19953;-73
2022/11/29 08:02:41;;;;;;;;;;;13.10;99.90;;;;;;4967114;28;19944;-74
2022/11/29 08:05:07;;;;;;;;;;;13.10;99.90;;;;;;4968867;28;20004;-75
2022/11/29 08:07:33;;;;;;;;;;;13.00;99.90;;;;;;4969704;28;19920;-73
2022/11/29 08:09:59;;;;;;;;;;;13.00;99.90;;;;;;4969852;28;20119;-74
2022/11/29 08:12:24;;;;;;;;;;;13.00;99.90;;;;;;4964942;28;19980;-75
2022/11/29 08:14:50;;;;;;;;;;;13.20;99.90;;;;;;4974020;28;19921;-73
2022/11/29 08:17:17;;;;;;;;;;;13.30;99.90;;;;;;4969382;28;19961;-74
2022/11/29 08:19:43;;;;;;;;;;;13.20;99.90;;;;;;4965942;28;20384;-75
2022/11/29 08:22:08;;;;;;;;;;;13.30;99.90;;;;;;4973075;28;19917;-76
2022/11/29 08:24:33;;;;;;;;;;;13.40;99.90;;;;;;4968674;28;19914;-74
2022/11/29 08:26:59;;;;;;;;;;;13.40;99.90;;;;;;4966828;28;20004;-73
2022/11/29 08:29:25;;;;;;;;;;;13.30;99.90;;;;;;4968669;28;19917;-76
2022/11/29 08:31:52;;;;;;;;;;;13.60;99.90;;;;;;5000575;28;19953;-74
2022/11/29 08:34:18;;;;;;;;;;;13.60;99.90;;;;;;4966411;28;19918;-75
2022/11/29 08:36:43;;;;;;;;;;;13.40;99.90;;;;;;4969748;28;19910;-74
2022/11/29 08:39:09;;;;;;;;;;;13.50;99.90;;;;;;4965058;28;19910;-74
2022/11/29 08:41:34;;;;;;;;;;;13.50;99.90;;;;;;4964604;28;20384;-75
2022/11/29 08:44:00;;;;;;;;;;;13.50;99.90;;;;;;4969596;28;20335;-73
2022/11/29 08:47:34;;;;;;;;;;;13.50;99.90;;;;;;4967065;28;20124;-75
2022/11/29 08:49:11;;;;;;;;;;;13.50;99.90;;;;;;4964450;28;19918;-73
2022/11/29 08:51:36;;;;;;;;;;;13.50;99.90;;;;;;4973356;28;20084;-74
2022/11/29 08:54:02;;;;;;;;;;;13.70;99.90;;;;;;5014319;28;19910;-73
2022/11/29 08:56:27;;;;;;;;;;;13.50;99.90;;;;;;4989609;28;19918;-73
2022/11/29 08:58:52;;;;;;;;;;;13.70;99.90;;;;;;4967334;28;19915;-75
2022/11/29 09:01:18;;;;;;;;;;;13.70;99.90;;;;;;4965004;28;19919;-74
2022/11/29 09:04:03;;;;;;;;;;;13.60;99.90;;;;;;4972540;28;20380;-75
2022/11/29 09:06:36;;;;;;;;;;;13.60;99.90;;;;;;4963074;28;20013;-74
2022/11/29 09:09:02;;;;;;;;;;;13.50;99.90;;;;;;4958169;28;19988;-74
2022/11/29 09:11:28;;;;;;;;;;;13.50;99.90;;;;;;4969659;28;20331;-74
2022/11/29 09:13:55;;;;;;;;;;;13.60;99.90;;;;;;4962478;28;19996;-74
2022/11/29 09:16:22;;;;;;;;;;;13.70;99.90;;;;;;4965464;28;20454;-73
2022/11/29 09:18:48;;;;;;;;;;;13.60;99.90;;;;;;4967656;28;20021;-74
2022/11/29 09:21:14;;;;;;;;;;;13.90;99.90;;;;;;4969545;28;20009;-73
2022/11/29 09:23:41;;;;;;;;;;;14.10;99.90;;;;;;4990540;28;19910;-73
2022/11/29 09:26:07;;;;;;;;;;;13.90;99.90;;;;;;4972781;28;20319;-73
2022/11/29 09:28:33;;;;;;;;;;;14.00;99.90;;;;;;4973006;28;19909;-75
2022/11/29 09:31:09;;;;;;;;;;;13.90;99.90;;;;;;4972886;28;19960;-73
2022/11/29 09:33:35;;;;;;;;;;;14.00;99.90;;;;;;4974340;28;19914;-73
2022/11/29 09:36:00;;;;;;;;;;;14.10;99.90;;;;;;4964339;28;19918;-74
2022/11/29 09:38:26;;;;;;;;;;;14.00;99.90;;;;;;4975652;28;19914;-74
2022/11/29 09:40:53;;;;;;;;;;;14.10;99.90;;;;;;4983678;28;19914;-74
2022/11/29 09:43:34;;;;;;;;;;;14.20;99.90;;;;;;4983183;28;20427;-74
2022/11/29 09:46:14;;;;;;;;;;;14.10;99.90;;;;;;4974931;28;19941;-72
2022/11/29 09:48:46;;;;;;;;;;;14.40;99.90;;;;;;4974071;28;20366;-73
2022/11/29 09:51:16;;;;;;;;;;;14.40;99.90;;;;;;4964863;28;19918;-73
2022/11/29 09:53:51;;;;;;;;;;;14.20;99.90;;;;;;4970777;28;20006;-76
2022/11/29 09:56:20;;;;;;;;;;;14.30;99.90;;;;;;4968097;28;20514;-75
2022/11/29 09:58:52;;;;;;;;;;;13.90;99.90;;;;;;4965508;28;19981;-74
2022/11/29 10:01:20;;;;;;;;;;;13.90;99.90;;;;;;5000362;28;19922;-73
2022/11/29 10:03:50;;;;;;;;;;;13.90;99.90;;;;;;4967700;28;20392;-73
2022/11/29 10:06:27;;;;;;;;;;;14.10;99.90;;;;;;4971026;28;19914;-74
2022/11/29 10:09:01;;;;;;;;;;;14.30;99.90;;;;;;4970360;28;19914;-75
2022/11/29 10:11:29;;;;;;;;;;;14.50;99.90;;;;;;4964067;28;19914;-74
2022/11/29 10:14:00;;;;;;;;;;;14.70;99.90;;;;;;4962313;28;19917;-75
2022/11/29 10:16:44;;;;;;;;;;;14.70;99.90;;;;;;4968254;28;20410;-73
2022/11/29 10:19:14;;;;;;;;;;;14.70;99.90;;;;;;4968898;28;20017;-75
2022/11/29 10:21:42;;;;;;;;;;;14.50;99.90;;;;;;4966071;28;19914;-72
2022/11/29 10:24:12;;;;;;;;;;;14.60;99.90;;;;;;4981595;28;20171;-75
2022/11/29 10:26:37;;;;;;;;;;;14.60;99.90;;;;;;4992335;28;19934;-74
2022/11/29 10:29:03;;;;;;;;;;;14.50;99.90;;;;;;4976153;28;19910;-75
2022/11/29 10:31:34;;;;;;;;;;;14.40;99.90;;;;;;4971739;28;20151;-73
2022/11/29 10:34:01;;;;;;;;;;;14.50;99.90;;;;;;4970840;28;19914;-73
2022/11/29 10:36:31;;;;;;;;;;;14.50;99.90;;;;;;4961389;28;20005;-74
2022/11/29 10:39:00;;;;;;;;;;;14.70;99.90;;;;;;4969937;28;19913;-73
2022/11/29 10:41:26;;;;;;;;;;;14.70;99.90;;;;;;4969261;28;19910;-74
2022/11/29 10:43:53;;;;;;;;;;;14.80;99.90;;;;;;4983944;28;20019;-74
2022/11/29 10:46:30;;;;;;;;;;;14.70;99.90;;;;;;4968406;28;20005;-73
2022/11/29 10:48:57;;;;;;;;;;;14.80;99.90;;;;;;4968180;28;20029;-73
2022/11/29 10:51:22;;;;;;;;;;;15.30;99.90;;;;;;4969815;28;20464;-74
2022/11/29 10:53:48;;;;;;;;;;;15.50;99.90;;;;;;4975454;28;19922;-75
2022/11/29 10:56:21;;;;;;;;;;;15.50;99.90;;;;;;4971053;28;19910;-74
2022/11/29 10:59:04;;;;;;;;;;;15.80;99.90;;;;;;4972779;28;19961;-74
2022/11/29 11:01:31;;;;;;;;;;;15.60;99.90;;;;;;4985307;28;20395;-74
2022/11/29 11:03:57;;;;;;;;;;;15.60;99.90;;;;;;4971711;28;20304;-74
2022/11/29 11:06:40;;;;;;;;;;;16.10;99.90;;;;;;4972174;28;19914;-76
2022/11/29 11:09:15;;;;;;;;;;;16.30;99.90;;;;;;4969476;28;20291;-74
2022/11/29 11:11:48;;;;;;;;;;;16.30;99.90;;;;;;4999414;28;19995;-76
2022/11/29 11:14:23;;;;;;;;;;;15.90;99.90;;;;;;4998617;28;20344;-74
2022/11/29 11:16:48;;;;;;;;;;;15.70;99.90;;;;;;4970442;28;19929;-74
2022/11/29 11:19:23;;;;;;;;;;;16.00;99.90;;;;;;4972022;28;19910;-75
2022/11/29 11:21:49;;;;;;;;;;;16.20;99.90;;;;;;4967909;28;19985;-74
2022/11/29 11:24:25;;;;;;;;;;;16.10;99.90;;;;;;4969480;28;20016;-73
2022/11/29 11:26:51;;;;;;;;;;;16.40;99.90;;;;;;4971204;28;20008;-75
2022/11/29 11:29:22;;;;;;;;;;;16.20;99.90;;;;;;4974567;28;19998;-75
2022/11/29 11:31:53;;;;;;;;;;;16.10;99.90;;;;;;4971604;28;20049;-75
2022/11/29 11:34:35;;;;;;;;;;;15.90;99.90;;;;;;4971524;28;19941;-73
2022/11/29 11:37:13;;;;;;;;;;;15.70;99.90;;;;;;4965137;28;19910;-74
2022/11/29 11:39:39;;;;;;;;;;;15.70;99.90;;;;;;4970908;28;19957;-73
2022/11/29 11:44:51;;;;;;;;;;;15.90;99.90;;;;;;4977615;28;19937;-76
2022/11/29 11:47:18;;;;;;;;;;;16.20;99.90;;;;;;4980450;28;19917;-75
2022/11/29 11:49:47;;;;;;;;;;;16.40;99.90;;;;;;4985636;28;19926;-77
2022/11/29 11:52:15;;;;;;;;;;;16.70;99.90;;;;;;5018494;28;19910;-75
2022/11/29 11:54:44;;;;;;;;;;;16.60;99.90;;;;;;4989641;28;19898;-75
2022/11/29 11:57:16;;;;;;;;;;;16.40;99.90;;;;;;5008099;28;20014;-73
2022/11/29 11:59:46;;;;;;;;;;;16.20;99.90;;;;;;4972895;28;19929;-75
2022/11/29 12:02:24;;;;;;;;;;;16.10;99.90;;;;;;4969366;28;19930;-73
2022/11/29 12:04:50;;;;;;;;;;;16.50;99.90;;;;;;4994439;28;20570;-74
2022/11/29 12:07:29;;;;;;;;;;;16.50;99.90;;;;;;4958723;28;20211;-73
2022/11/29 12:09:56;;;;;;;;;;;16.40;99.90;;;;;;4982555;28;19964;-74
2022/11/29 12:12:36;;;;;;;;;;;16.40;99.90;;;;;;4964720;28;19941;-74
2022/11/29 12:15:13;;;;;;;;;;;16.50;99.90;;;;;;4961753;28;19965;-73
2022/11/29 12:17:42;;;;;;;;;;;16.40;99.90;;;;;;5012771;28;19965;-72
2022/11/29 12:20:43;;;;;;;;;;;16.80;99.90;;;;;;4984140;28;19960;-74
2022/11/29 12:23:12;;;;;;;;;;;16.80;99.90;;;;;;4954167;29;20030;-72
2022/11/29 12:25:40;;;;;;;;;;;17.20;99.90;;;;;;4982706;28;19930;-74
2022/11/29 12:28:13;;;;;;;;;;;17.40;99.90;;;;;;5002582;28;19925;-72
2022/11/29 12:30:53;;;;;;;;;;;17.50;99.90;;;;;;4983299;28;19997;-72
2022/11/29 12:33:25;;;;;;;;;;;17.60;99.90;;;;;;4983099;28;20407;-74
2022/11/29 12:35:50;;;;;;;;;;;17.70;99.90;;;;;;4996977;28;19918;-76
2022/11/29 12:38:39;;;;;;;;;;;17.70;99.90;;;;;;4972129;28;19916;-74
2022/11/29 12:41:13;;;;;;;;;;;17.70;99.90;;;;;;4967634;28;19914;-74
2022/11/29 12:43:58;;;;;;;;;;;17.70;99.90;;;;;;4964724;28;19917;-75
2022/11/29 12:46:26;;;;;;;;;;;17.70;99.90;;;;;;4973051;28;19985;-74
2022/11/29 12:48:52;;;;;;;;;;;17.90;99.90;;;;;;4970031;28;20289;-74
2022/11/29 12:51:36;;;;;;;;;;;18.20;99.90;;;;;;4982320;28;19974;-76
2022/11/29 12:54:05;;;;;;;;;;;18.60;99.90;;;;;;4967043;28;20009;-78
2022/11/29 12:56:39;;;;;;;;;;;18.40;99.90;;;;;;4965346;28;20400;-78
2022/11/29 12:59:23;;;;;;;;;;;18.00;99.90;;;;;;4960916;28;20265;-77
2022/11/29 13:01:49;;;;;;;;;;;17.50;99.90;;;;;;4957406;28;20307;-77
2022/11/29 13:04:24;;;;;;;;;;;17.60;99.90;;;;;;4968296;28;20434;-74
2022/11/29 13:06:50;;;;;;;;;;;17.70;99.90;;;;;;4964061;28;19906;-75
2022/11/29 13:09:18;;;;;;;;;;;17.70;99.90;;;;;;4965833;28;19910;-77
2022/11/29 13:12:10;;;;;;;;;;;17.40;99.90;;;;;;4980688;28;19941;-77
2022/11/29 13:14:47;;;;;;;;;;;17.40;99.90;;;;;;4972248;28;19917;-74
2022/11/29 13:17:23;;;;;;;;;;;17.50;99.90;;;;;;4970003;28;19922;-76
2022/11/29 13:19:51;;;;;;;;;;;17.70;99.90;;;;;;4969673;28;19918;-77
2022/11/29 13:22:17;;;;;;;;;;;17.50;99.90;;;;;;4973970;28;19948;-75
2022/11/29 13:24:45;;;;;;;;;;;17.60;99.90;;;;;;4970469;28;20327;-77
2022/11/29 13:27:21;;;;;;;;;;;17.60;99.90;;;;;;4966684;28;19910;-77
2022/11/29 13:29:47;;;;;;;;;;;17.70;99.90;;;;;;4980891;28;20022;-74
2022/11/29 13:32:25;;;;;;;;;;;17.60;99.90;;;;;;4965776;28;20012;-76
2022/11/29 13:34:51;;;;;;;;;;;17.80;99.90;;;;;;4967569;28;19953;-77
2022/11/29 13:37:19;;;;;;;;;;;17.70;99.90;;;;;;4967075;28;19921;-75
2022/11/29 13:40:03;;;;;;;;;;;18.10;99.90;;;;;;4984735;28;19910;-78
2022/11/29 13:42:49;;;;;;;;;;;18.30;99.90;;;;;;4982416;28;20015;-77
2022/11/29 13:45:33;;;;;;;;;;;18.30;99.90;;;;;;4963862;28;19921;-77
2022/11/29 13:48:00;;;;;;;;;;;18.30;99.90;;;;;;4966979;28;19910;-75
2022/11/29 13:50:35;;;;;;;;;;;18.50;99.90;;;;;;4963794;28;20408;-78
2022/11/29 13:53:02;;;;;;;;;;;18.70;99.90;;;;;;4969939;28;19918;-76
2022/11/29 13:55:28;;;;;;;;;;;18.90;99.90;;;;;;4980168;28;19922;-77
2022/11/29 13:58:04;;;;;;;;;;;18.90;99.90;;;;;;4972355;28;19910;-76
2022/11/29 14:00:32;;;;;;;;;;;18.90;99.90;;;;;;4971307;28;19918;-79
2022/11/29 14:03:27;;;;;;;;;;;18.70;99.90;;;;;;4968410;28;20001;-76
2022/11/29 14:06:09;;;;;;;;;;;18.50;99.90;;;;;;4951615;28;19918;-74
2022/11/29 14:08:50;;;;;;;;;;;18.50;99.90;;;;;;4966791;28;19991;-76
2022/11/29 14:11:16;;;;;;;;;;;18.20;99.90;;;;;;4982431;28;20245;-77
2022/11/29 14:13:44;;;;;;;;;;;18.00;99.90;;;;;;4996344;28;20399;-75
2022/11/29 14:16:33;;;;;;;;;;;18.30;99.90;;;;;;4968052;28;19911;-77
2022/11/29 14:19:07;;;;;;;;;;;18.20;99.90;;;;;;4966612;28;19915;-75
2022/11/29 14:21:52;;;;;;;;;;;18.30;99.90;;;;;;4976608;28;19933;-77
2022/11/29 14:24:35;;;;;;;;;;;18.30;99.90;;;;;;4975676;28;20304;-76
2022/11/29 14:27:13;;;;;;;;;;;17.90;99.90;;;;;;4965998;28;19933;-76
2022/11/29 14:29:54;;;;;;;;;;;17.80;99.90;;;;;;4970257;28;19937;-77
2022/11/29 14:32:19;;;;;;;;;;;17.50;99.90;;;;;;4967123;28;19910;-77
2022/11/29 14:34:47;;;;;;;;;;;17.40;99.90;;;;;;4969901;28;19921;-77
2022/11/29 14:37:18;;;;;;;;;;;17.20;99.90;;;;;;4968270;28;19918;-75
2022/11/29 14:39:45;;;;;;;;;;;17.00;99.90;;;;;;4968754;28;19941;-74
2022/11/29 14:42:17;;;;;;;;;;;16.80;99.90;;;;;;4971757;28;20003;-76
2022/11/29 14:45:03;;;;;;;;;;;16.90;99.90;;;;;;4969671;28;19926;-77